createdAt,value
2019-05-21T00:00:00.348Z,6.43
2019-05-21T00:02:29.391Z,5.80
2019-05-21T00:04:58.543Z,5.87
2019-05-21T00:07:33.741Z,5.60
2019-05-21T00:09:59.785Z,6.60
2019-05-21T00:12:25.972Z,5.93
2019-05-21T00:15:00.827Z,6.37
2019-05-21T00:17:27.526Z,7.17
2019-05-21T00:19:53.593Z,8.67
2019-05-21T00:22:19.712Z,5.83
2019-05-21T00:24:47.264Z,5.13
2019-05-21T00:27:13.369Z,6.00
2019-05-21T00:30:17.027Z,9.57
2019-05-21T00:33:30.157Z,7.53
2019-05-21T00:36:35.533Z,6.93
2019-05-21T00:39:39.267Z,5.07
2019-05-21T00:42:05.764Z,5.93
2019-05-21T00:44:44.755Z,6.27
2019-05-21T00:47:26.652Z,6.23
2019-05-21T00:49:56.484Z,8.43
2019-05-21T00:52:22.533Z,7.47
2019-05-21T00:54:48.588Z,5.83
2019-05-21T00:57:14.606Z,8.17
2019-05-21T00:59:41.008Z,10.47
2019-05-21T01:02:07.025Z,8.27
2019-05-21T01:04:33.051Z,9.20
2019-05-21T01:06:59.098Z,7.57
2019-05-21T01:09:25.146Z,9.10
2019-05-21T01:11:51.150Z,8.30
2019-05-21T01:14:17.288Z,9.03
2019-05-21T01:16:43.656Z,6.67
2019-05-21T01:19:10.254Z,9.87
2019-05-21T01:21:36.373Z,8.40
2019-05-21T01:24:10.369Z,10.97
2019-05-21T01:26:36.428Z,13.27
2019-05-21T01:29:04.388Z,11.00
2019-05-21T01:31:30.510Z,10.33
2019-05-21T01:33:56.523Z,12.40
2019-05-21T01:36:22.568Z,12.07
2019-05-21T01:38:48.600Z,10.20
2019-05-21T01:41:15.902Z,10.03
2019-05-21T01:43:53.136Z,10.87
2019-05-21T01:46:35.700Z,10.53
2019-05-21T01:49:06.050Z,9.23
2019-05-21T01:51:36.676Z,13.53
2019-05-21T01:54:05.797Z,16.87
2019-05-21T01:56:36.979Z,14.57
2019-05-21T01:59:03.407Z,10.07
2019-05-21T02:01:29.465Z,12.70
2019-05-21T02:03:56.724Z,11.23
2019-05-21T02:06:23.531Z,10.93
2019-05-21T02:08:51.510Z,11.70
2019-05-21T02:11:17.641Z,13.43
2019-05-21T02:13:44.069Z,30.20
2019-05-21T02:16:10.108Z,17.70
2019-05-21T02:18:36.244Z,11.43
2019-05-21T02:21:02.354Z,13.40
2019-05-21T02:23:28.621Z,11.67
2019-05-21T02:25:54.987Z,13.20
2019-05-21T02:28:21.313Z,13.53
2019-05-21T02:30:47.325Z,13.57
2019-05-21T02:33:13.364Z,12.13
2019-05-21T02:35:53.837Z,11.77
2019-05-21T02:38:07.316Z,13.70
2019-05-21T02:40:33.604Z,12.90
2019-05-21T02:42:59.654Z,13.13
2019-05-21T02:45:25.695Z,13.63
2019-05-21T02:47:51.760Z,17.00
2019-05-21T02:50:17.777Z,14.20
2019-05-21T02:52:44.930Z,13.00
2019-05-21T02:55:11.048Z,14.27
2019-05-21T02:57:38.530Z,15.07
2019-05-21T03:00:06.952Z,14.33
2019-05-21T03:02:34.892Z,17.33
2019-05-21T03:05:00.904Z,18.57
2019-05-21T03:07:26.920Z,19.23
2019-05-21T03:09:54.076Z,17.70
2019-05-21T03:12:20.413Z,16.47
2019-05-21T03:14:46.490Z,18.27
2019-05-21T03:17:32.427Z,17.03
2019-05-21T03:19:58.640Z,15.40
2019-05-21T03:22:24.652Z,21.10
2019-05-21T03:24:50.689Z,16.30
2019-05-21T03:27:16.702Z,17.77
2019-05-21T03:29:42.713Z,18.30
2019-05-21T03:32:08.794Z,19.87
2019-05-21T03:34:35.196Z,18.53
2019-05-21T03:37:01.197Z,17.50
2019-05-21T03:39:27.452Z,17.03
2019-05-21T03:41:53.751Z,21.47
2019-05-21T03:44:19.796Z,23.40
2019-05-21T03:46:45.905Z,19.37
2019-05-21T03:49:11.912Z,18.43
2019-05-21T03:51:37.927Z,16.93
2019-05-21T03:54:04.042Z,21.63
2019-05-21T03:56:30.316Z,19.87
2019-05-21T03:58:56.352Z,18.80
2019-05-21T04:01:22.575Z,17.87
2019-05-21T04:03:48.594Z,18.50
2019-05-21T04:06:14.604Z,20.93
2019-05-21T04:08:40.715Z,20.80
2019-05-21T04:11:06.738Z,19.77
2019-05-21T04:13:32.836Z,21.03
2019-05-21T04:16:00.794Z,21.53
2019-05-21T04:18:28.744Z,17.90
2019-05-21T04:20:54.905Z,14.73
2019-05-21T04:23:20.939Z,19.37
2019-05-21T04:25:47.191Z,16.93
2019-05-21T04:28:13.225Z,23.43
2019-05-21T04:30:40.189Z,19.27
2019-05-21T04:33:06.196Z,21.20
2019-05-21T04:35:32.212Z,21.17
2019-05-21T04:37:58.944Z,17.90
2019-05-21T04:40:24.968Z,21.13
2019-05-21T04:42:51.024Z,18.20
2019-05-21T04:45:17.127Z,20.60
2019-05-21T04:47:43.142Z,24.50
2019-05-21T04:50:09.153Z,22.60
2019-05-21T04:52:35.272Z,19.50
2019-05-21T04:55:01.593Z,30.20
2019-05-21T04:57:27.662Z,27.07
2019-05-21T04:59:53.811Z,24.80
2019-05-21T05:02:23.306Z,21.43
2019-05-21T05:04:51.337Z,24.33
2019-05-21T05:07:28.543Z,26.83
2019-05-21T05:09:53.364Z,22.50
2019-05-21T05:12:19.447Z,24.43
2019-05-21T05:14:45.564Z,23.50
2019-05-21T05:17:11.592Z,22.40
2019-05-21T05:19:37.667Z,21.07
2019-05-21T05:22:05.620Z,29.30
2019-05-21T05:24:31.724Z,24.17
2019-05-21T05:26:57.803Z,28.50
2019-05-21T05:29:23.949Z,26.70
2019-05-21T05:31:49.991Z,40.43
2019-05-21T05:34:18.927Z,31.13
2019-05-21T05:36:47.885Z,33.37
2019-05-21T05:39:23.328Z,26.03
2019-05-21T05:41:51.384Z,22.13
2019-05-21T05:44:17.473Z,23.37
2019-05-21T05:46:43.764Z,27.83
2019-05-21T05:49:12.633Z,30.47
2019-05-21T05:51:38.692Z,24.13
2019-05-21T05:54:07.591Z,21.83
2019-05-21T05:56:32.923Z,23.60
2019-05-21T05:59:04.121Z,23.57
2019-05-21T06:01:32.045Z,22.13
2019-05-21T06:03:58.258Z,25.53
2019-05-21T06:06:24.366Z,30.63
2019-05-21T06:08:50.375Z,34.20
2019-05-21T06:11:16.412Z,40.17
2019-05-21T06:13:42.445Z,41.07
2019-05-21T06:16:08.489Z,28.10
2019-05-21T06:18:35.636Z,31.33
2019-05-21T06:21:02.024Z,40.80
2019-05-21T06:23:31.977Z,35.47
2019-05-21T06:25:58.155Z,35.07
2019-05-21T06:28:24.215Z,36.37
2019-05-21T06:30:53.405Z,28.93
2019-05-21T06:33:19.508Z,37.87
2019-05-21T06:35:47.444Z,35.60
2019-05-21T06:38:17.745Z,34.23
2019-05-21T06:40:41.565Z,41.40
2019-05-21T06:43:07.581Z,38.87
2019-05-21T06:45:33.586Z,37.63
2019-05-21T06:47:59.760Z,37.10
2019-05-21T06:50:26.103Z,34.70
2019-05-21T06:52:52.103Z,35.57
2019-05-21T06:55:18.522Z,37.37
2019-05-21T06:57:44.554Z,34.77
2019-05-21T07:00:12.476Z,33.27
2019-05-21T07:02:38.649Z,26.87
2019-05-21T07:05:07.304Z,31.70
2019-05-21T07:07:35.079Z,29.10
2019-05-21T07:10:01.214Z,40.53
2019-05-21T07:12:30.119Z,42.20
2019-05-21T07:14:58.114Z,28.63
2019-05-21T07:17:25.542Z,29.37
2019-05-21T07:19:51.879Z,36.43
2019-05-21T07:22:37.886Z,29.20
2019-05-21T07:25:05.412Z,37.17
2019-05-21T07:27:31.441Z,35.80
2019-05-21T07:29:57.459Z,40.07
2019-05-21T07:32:26.253Z,34.90
2019-05-21T07:34:57.303Z,33.63
2019-05-21T07:37:24.495Z,29.17
2019-05-21T07:39:50.503Z,36.40
2019-05-21T07:42:16.563Z,36.33
2019-05-21T07:44:42.620Z,34.43
2019-05-21T07:47:08.656Z,30.67
2019-05-21T07:49:34.722Z,39.87
2019-05-21T07:52:03.612Z,33.03
2019-05-21T07:54:44.611Z,34.60
2019-05-21T07:57:10.752Z,31.07
2019-05-21T07:59:36.771Z,38.87
2019-05-21T08:02:03.139Z,33.60
2019-05-21T08:04:29.270Z,33.47
2019-05-21T08:06:55.369Z,35.27
2019-05-21T08:09:21.401Z,42.80
2019-05-21T08:11:53.584Z,42.00
2019-05-21T08:14:19.602Z,41.63
2019-05-21T08:16:48.693Z,37.13
2019-05-21T08:19:15.111Z,44.80
2019-05-21T08:21:41.128Z,41.97
2019-05-21T08:24:07.239Z,34.93
2019-05-21T08:26:38.179Z,41.50
2019-05-21T08:29:04.256Z,39.43
2019-05-21T08:31:30.359Z,44.80
2019-05-21T08:33:58.876Z,40.27
2019-05-21T08:36:24.916Z,38.53
2019-05-21T08:38:50.936Z,40.83
2019-05-21T08:41:16.996Z,37.17
2019-05-21T08:43:43.015Z,36.27
2019-05-21T08:46:09.050Z,37.77
2019-05-21T08:48:35.409Z,34.57
2019-05-21T08:51:01.423Z,32.90
2019-05-21T08:53:27.440Z,39.77
2019-05-21T08:55:53.992Z,38.40
2019-05-21T08:58:20.085Z,41.73
2019-05-21T09:00:46.209Z,33.57
2019-05-21T09:03:12.381Z,39.87
2019-05-21T09:05:38.495Z,30.53
2019-05-21T09:08:04.532Z,31.23
2019-05-21T09:10:31.787Z,29.60
2019-05-21T09:12:57.829Z,30.67
2019-05-21T09:15:23.901Z,34.93
2019-05-21T09:17:50.381Z,31.67
2019-05-21T09:20:16.894Z,31.40
2019-05-21T09:22:43.211Z,29.63
2019-05-21T09:25:09.472Z,27.80
2019-05-21T09:27:36.037Z,24.10
2019-05-21T09:30:05.383Z,25.80
2019-05-21T09:32:31.432Z,23.17
2019-05-21T09:34:57.447Z,27.60
2019-05-21T09:37:23.484Z,26.17
2019-05-21T09:39:49.992Z,25.07
2019-05-21T09:42:16.153Z,25.97
2019-05-21T09:44:44.074Z,21.93
2019-05-21T09:47:10.107Z,30.47
2019-05-21T09:49:36.154Z,27.00
2019-05-21T09:52:02.188Z,23.63
2019-05-21T09:54:28.223Z,22.83
2019-05-21T09:56:54.287Z,22.27
2019-05-21T09:59:39.187Z,34.33
2019-05-21T10:02:15.987Z,23.33
2019-05-21T10:04:42.680Z,34.13
2019-05-21T10:07:36.310Z,28.73
2019-05-21T10:09:55.297Z,29.57
2019-05-21T10:12:21.305Z,24.47
2019-05-21T10:14:50.428Z,29.17
2019-05-21T10:17:17.104Z,30.00
2019-05-21T10:19:44.539Z,23.73
2019-05-21T10:22:11.597Z,29.57
2019-05-21T10:24:45.650Z,32.53
2019-05-21T10:27:11.680Z,27.63
2019-05-21T10:29:38.231Z,26.07
2019-05-21T10:32:12.358Z,31.10
2019-05-21T10:34:38.410Z,26.80
2019-05-21T10:37:07.089Z,33.77
2019-05-21T10:39:33.145Z,30.30
2019-05-21T10:41:59.239Z,29.77
2019-05-21T10:44:25.262Z,26.73
2019-05-21T10:46:51.404Z,27.07
2019-05-21T10:49:20.524Z,28.93
2019-05-21T10:51:46.672Z,29.33
2019-05-21T10:54:12.824Z,25.07
2019-05-21T10:56:48.033Z,26.73
2019-05-21T10:59:07.061Z,30.77
2019-05-21T11:01:35.632Z,29.03
2019-05-21T11:04:21.473Z,27.63
2019-05-21T11:06:48.387Z,29.50
2019-05-21T11:09:16.303Z,26.20
2019-05-21T11:11:56.076Z,23.13
2019-05-21T11:14:25.554Z,26.87
2019-05-21T11:16:51.965Z,23.90
2019-05-21T11:19:18.007Z,27.17
2019-05-21T11:21:47.826Z,25.50
2019-05-21T11:24:18.468Z,30.30
2019-05-21T11:26:44.508Z,26.67
2019-05-21T11:29:16.717Z,24.87
2019-05-21T11:31:57.064Z,27.53
2019-05-21T11:34:18.339Z,21.97
2019-05-21T11:36:44.374Z,23.63
2019-05-21T11:39:10.399Z,31.33
2019-05-21T11:41:36.691Z,25.77
2019-05-21T11:44:02.709Z,30.13
2019-05-21T11:46:28.723Z,28.97
2019-05-21T11:48:55.349Z,23.10
2019-05-21T11:51:21.542Z,29.37
2019-05-21T11:53:47.548Z,20.63
2019-05-21T11:56:13.632Z,29.33
2019-05-21T11:58:43.085Z,23.30
2019-05-21T12:01:09.148Z,22.67
2019-05-21T12:03:35.536Z,26.43
2019-05-21T12:06:01.832Z,29.23
2019-05-21T12:08:27.868Z,25.30
2019-05-21T12:10:53.896Z,29.97
2019-05-21T12:13:20.689Z,25.43
2019-05-21T12:15:46.948Z,33.93
2019-05-21T12:18:13.062Z,23.50
2019-05-21T12:20:39.064Z,20.37
2019-05-21T12:23:05.117Z,24.87
2019-05-21T12:25:31.263Z,28.03
2019-05-21T12:27:57.673Z,26.30
2019-05-21T12:30:23.727Z,26.03
2019-05-21T12:32:50.255Z,28.10
2019-05-21T12:35:16.267Z,28.03
2019-05-21T12:37:42.381Z,27.27
2019-05-21T12:40:08.643Z,28.77
2019-05-21T12:42:34.702Z,30.20
2019-05-21T12:45:00.692Z,24.87
2019-05-21T12:47:27.202Z,32.27
2019-05-21T12:49:53.212Z,27.53
2019-05-21T12:52:19.293Z,26.77
2019-05-21T12:54:46.234Z,26.47
2019-05-21T12:57:12.460Z,27.17
2019-05-21T12:59:38.474Z,30.80
2019-05-21T13:02:04.517Z,31.47
2019-05-21T13:04:30.789Z,32.20
2019-05-21T13:06:56.846Z,30.50
2019-05-21T13:09:32.234Z,23.50
2019-05-21T13:11:50.851Z,28.80
2019-05-21T13:14:18.880Z,32.53
2019-05-21T13:16:44.913Z,32.83
2019-05-21T13:19:11.429Z,37.60
2019-05-21T13:21:37.672Z,31.73
2019-05-21T13:24:03.828Z,31.20
2019-05-21T13:26:30.227Z,33.63
2019-05-21T13:29:10.999Z,30.20
2019-05-21T13:31:43.564Z,32.77
2019-05-21T13:34:10.043Z,29.73
2019-05-21T13:36:36.059Z,34.43
2019-05-21T13:39:04.542Z,32.83
2019-05-21T13:41:30.652Z,35.80
2019-05-21T13:43:56.684Z,31.87
2019-05-21T13:46:22.832Z,31.20
2019-05-21T13:48:49.461Z,79.40
2019-05-21T13:51:15.537Z,42.73
2019-05-21T13:53:44.213Z,48.33
2019-05-21T13:56:16.631Z,38.10
2019-05-21T13:58:49.699Z,39.27
2019-05-21T14:01:16.433Z,52.27
2019-05-21T14:03:47.283Z,52.97
2019-05-21T14:06:40.024Z,53.27
2019-05-21T14:09:05.369Z,45.60
2019-05-21T14:11:39.242Z,50.00
2019-05-21T14:14:05.259Z,52.33
2019-05-21T14:16:34.622Z,52.13
2019-05-21T14:18:59.285Z,47.83
2019-05-21T14:21:25.309Z,41.67
2019-05-21T14:23:51.340Z,45.23
2019-05-21T14:26:19.315Z,46.27
2019-05-21T14:28:45.348Z,56.10
2019-05-21T14:31:14.364Z,44.00
2019-05-21T14:33:40.372Z,46.10
2019-05-21T14:36:06.581Z,41.00
2019-05-21T14:38:32.612Z,52.77
2019-05-21T14:40:58.636Z,55.10
2019-05-21T14:43:24.642Z,45.30
2019-05-21T14:45:51.059Z,41.10
2019-05-21T14:48:17.094Z,50.50
2019-05-21T14:50:43.194Z,43.67
2019-05-21T14:53:09.328Z,61.03
2019-05-21T14:55:35.340Z,48.70
2019-05-21T14:58:01.354Z,50.10
2019-05-21T15:00:30.711Z,60.40
2019-05-21T15:02:56.724Z,65.27
2019-05-21T15:05:22.741Z,79.67
2019-05-21T15:07:49.819Z,80.20
2019-05-21T15:10:16.089Z,65.10
2019-05-21T15:12:42.171Z,67.83
2019-05-21T15:15:08.378Z,49.90
2019-05-21T15:17:34.479Z,76.57
2019-05-21T15:20:02.443Z,135.30
2019-05-21T15:22:28.648Z,56.20
2019-05-21T15:24:54.989Z,57.23
2019-05-21T15:27:21.089Z,51.17
2019-05-21T15:29:47.124Z,53.73
2019-05-21T15:32:13.147Z,54.97
2019-05-21T15:34:39.177Z,44.07
2019-05-21T15:37:05.738Z,53.10
2019-05-21T15:39:31.876Z,47.00
2019-05-21T15:41:59.278Z,63.27
2019-05-21T15:44:26.362Z,38.40
2019-05-21T15:46:52.418Z,35.07
2019-05-21T15:49:35.602Z,34.80
2019-05-21T15:51:51.621Z,32.27
2019-05-21T15:54:33.717Z,26.50
2019-05-21T15:56:59.780Z,28.43
2019-05-21T15:59:33.523Z,26.37
2019-05-21T16:02:02.436Z,28.67
2019-05-21T16:04:31.060Z,29.13
2019-05-21T16:07:06.008Z,24.37
2019-05-21T16:09:37.447Z,26.40
2019-05-21T16:12:11.227Z,20.97
2019-05-21T16:14:40.527Z,24.30
2019-05-21T16:17:15.280Z,19.87
2019-05-21T16:19:41.312Z,21.80
2019-05-21T16:22:12.681Z,17.60
2019-05-21T16:24:49.275Z,20.60
2019-05-21T16:29:49.306Z,21.27
2019-05-21T16:32:20.472Z,22.33
2019-05-21T16:34:46.540Z,22.40
2019-05-21T16:37:18.243Z,26.33
2019-05-21T16:40:01.768Z,31.67
2019-05-21T16:42:36.424Z,28.23
2019-05-21T16:45:03.986Z,26.17
2019-05-21T16:47:46.327Z,34.10
2019-05-21T16:50:19.984Z,36.47
2019-05-21T16:52:55.620Z,33.23
2019-05-21T16:55:24.739Z,41.63
2019-05-21T16:57:50.768Z,31.47
2019-05-21T17:00:17.198Z,77.33
2019-05-21T17:02:43.245Z,33.17
2019-05-21T17:05:11.161Z,31.77
2019-05-21T17:07:37.197Z,27.80
2019-05-21T17:10:04.195Z,36.40
2019-05-21T17:12:30.261Z,40.60
2019-05-21T17:14:56.284Z,36.63
2019-05-21T17:17:22.383Z,43.47
2019-05-21T17:19:48.464Z,40.30
2019-05-21T17:22:19.891Z,43.40
2019-05-21T17:24:47.828Z,46.17
2019-05-21T17:27:13.860Z,42.53
2019-05-21T17:29:40.061Z,44.27
2019-05-21T17:32:06.861Z,55.17
2019-05-21T17:34:35.587Z,57.87
2019-05-21T17:37:03.521Z,54.30
2019-05-21T17:39:33.339Z,50.83
2019-05-21T17:42:15.088Z,51.33
2019-05-21T17:44:35.301Z,52.97
2019-05-21T17:47:01.291Z,52.67
2019-05-21T17:49:27.343Z,54.27
2019-05-21T17:51:53.495Z,56.60
2019-05-21T17:54:21.954Z,65.00
2019-05-21T17:56:57.868Z,73.67
2019-05-21T17:59:30.614Z,69.27
2019-05-21T18:01:56.741Z,58.97
2019-05-21T18:04:22.980Z,69.37
2019-05-21T18:06:49.264Z,72.30
2019-05-21T18:09:16.946Z,73.67
2019-05-21T18:11:56.274Z,56.93
2019-05-21T18:14:22.352Z,62.43
2019-05-21T18:16:48.478Z,66.00
2019-05-21T18:19:14.992Z,65.40
2019-05-21T18:21:53.263Z,70.63
2019-05-21T18:24:21.314Z,56.57
2019-05-21T18:26:47.341Z,59.40
2019-05-21T18:29:19.127Z,64.47
2019-05-21T18:32:17.664Z,68.37
2019-05-21T18:34:29.238Z,62.20
2019-05-21T18:37:28.784Z,62.10
2019-05-21T18:39:38.396Z,58.63
2019-05-21T18:42:21.731Z,63.13
2019-05-21T18:44:47.203Z,53.93
2019-05-21T18:47:21.768Z,58.50
2019-05-21T18:50:00.619Z,72.60
2019-05-21T18:52:32.658Z,56.33
2019-05-21T18:54:59.111Z,65.77
2019-05-21T18:57:29.932Z,56.67
2019-05-21T19:00:02.181Z,70.30
2019-05-21T19:02:28.347Z,63.73
2019-05-21T19:04:54.430Z,54.17
2019-05-21T19:07:20.517Z,58.37
2019-05-21T19:09:46.556Z,49.93
2019-05-21T19:12:12.571Z,61.47
2019-05-21T19:14:45.062Z,62.00
2019-05-21T19:17:06.750Z,62.97
2019-05-21T19:19:36.985Z,51.53
2019-05-21T19:22:06.248Z,44.67
2019-05-21T19:24:32.686Z,60.90
2019-05-21T19:26:58.691Z,61.87
2019-05-21T19:29:25.024Z,54.20
2019-05-21T19:31:51.143Z,62.67
2019-05-21T19:34:23.651Z,55.80
2019-05-21T19:36:49.747Z,49.50
2019-05-21T19:39:16.308Z,43.30
2019-05-21T19:41:42.319Z,45.67
2019-05-21T19:44:18.873Z,43.77
2019-05-21T19:46:44.897Z,46.63
2019-05-21T19:49:11.262Z,44.93
2019-05-21T19:51:43.109Z,49.33
2019-05-21T19:54:21.408Z,34.77
2019-05-21T19:56:55.532Z,32.33
2019-05-21T19:59:21.843Z,35.77
2019-05-21T20:01:48.366Z,38.83
2019-05-21T20:04:14.915Z,37.17
2019-05-21T20:06:40.919Z,46.80
2019-05-21T20:09:11.613Z,48.17
2019-05-21T20:11:37.686Z,39.80
2019-05-21T20:14:03.763Z,41.67
2019-05-21T20:16:30.129Z,37.87
2019-05-21T20:18:56.299Z,51.83
2019-05-21T20:21:22.853Z,42.63
2019-05-21T20:23:50.775Z,45.50
2019-05-21T20:26:18.305Z,40.60
2019-05-21T20:28:47.656Z,49.60
2019-05-21T20:31:14.345Z,48.30
2019-05-21T20:33:44.605Z,39.57
2019-05-21T20:36:10.640Z,68.37
2019-05-21T20:38:37.067Z,45.33
2019-05-21T20:41:03.286Z,55.93
2019-05-21T20:43:29.539Z,55.93
2019-05-21T20:45:57.011Z,63.67
2019-05-21T20:48:23.258Z,62.60
2019-05-21T20:50:49.947Z,59.47
2019-05-21T20:53:15.971Z,58.17
2019-05-21T20:55:41.983Z,58.03
2019-05-21T20:58:08.941Z,87.13
2019-05-21T21:00:43.098Z,49.57
2019-05-21T21:03:09.488Z,49.00
2019-05-21T21:05:36.174Z,54.80
2019-05-21T21:08:03.202Z,35.23
2019-05-21T21:10:29.607Z,41.60
2019-05-21T21:12:56.076Z,38.93
2019-05-21T21:15:22.900Z,40.60
2019-05-21T21:17:49.031Z,30.50
2019-05-21T21:20:15.067Z,30.87
2019-05-21T21:22:44.134Z,34.97
2019-05-21T21:25:10.175Z,34.80
2019-05-21T21:27:36.264Z,34.60
2019-05-21T21:30:06.024Z,30.63
2019-05-21T21:32:32.135Z,32.73
2019-05-21T21:34:58.164Z,31.37
2019-05-21T21:37:30.018Z,34.10
2019-05-21T21:39:56.491Z,30.83
2019-05-21T21:42:22.707Z,36.42
2019-05-21T21:44:48.715Z,30.00
2019-05-21T21:47:16.310Z,30.70
2019-05-21T21:49:43.384Z,29.13
2019-05-21T21:52:10.750Z,30.03
2019-05-21T21:54:37.683Z,30.80
2019-05-21T21:57:03.735Z,28.93
2019-05-21T21:59:29.748Z,28.53
2019-05-21T22:01:59.628Z,25.40
2019-05-21T22:04:28.378Z,28.07
2019-05-21T22:06:55.298Z,33.83
2019-05-21T22:09:23.203Z,31.37
2019-05-21T22:11:49.327Z,29.40
2019-05-21T22:14:15.763Z,33.47
2019-05-21T22:16:42.478Z,31.63
2019-05-21T22:19:08.659Z,32.97
2019-05-21T22:21:37.822Z,33.00
2019-05-21T22:24:04.164Z,27.03
2019-05-21T22:26:30.483Z,28.27
2019-05-21T22:28:56.532Z,28.20
2019-05-21T22:31:22.715Z,30.97
2019-05-21T22:33:48.819Z,27.97
2019-05-21T22:36:15.266Z,25.63
2019-05-21T22:38:41.279Z,28.10
2019-05-21T22:41:07.375Z,32.37
2019-05-21T22:43:33.510Z,27.87
2019-05-21T22:45:59.534Z,28.07
2019-05-21T22:48:25.638Z,26.40
2019-05-21T22:50:52.099Z,28.47
2019-05-21T22:53:18.154Z,30.80
2019-05-21T22:55:44.252Z,33.40
2019-05-21T22:58:10.689Z,30.03
2019-05-21T23:00:36.920Z,28.50
2019-05-21T23:03:04.683Z,29.60
2019-05-21T23:05:31.110Z,32.50
2019-05-21T23:08:01.207Z,34.67
2019-05-21T23:10:27.442Z,36.60
2019-05-21T23:12:53.922Z,33.87
2019-05-21T23:15:26.313Z,30.50
2019-05-21T23:17:55.633Z,30.53
2019-05-21T23:20:23.839Z,37.53
2019-05-21T23:22:51.766Z,33.13
2019-05-21T23:25:19.711Z,40.37
2019-05-21T23:27:47.632Z,34.93
2019-05-21T23:30:15.211Z,39.63
2019-05-21T23:32:41.448Z,40.27
2019-05-21T23:35:11.175Z,39.80
2019-05-21T23:37:39.219Z,36.90
2019-05-21T23:40:07.305Z,37.63
2019-05-21T23:42:33.815Z,31.17
2019-05-21T23:45:00.449Z,37.33
2019-05-21T23:47:27.278Z,42.03
2019-05-21T23:49:53.626Z,36.63
2019-05-21T23:52:19.751Z,42.57
2019-05-21T23:54:45.804Z,35.10
2019-05-21T23:57:13.716Z,39.33
2019-05-21T23:59:39.827Z,41.50
